sensor_id;sensor_type;location;lat;lon;timestamp;P1;durP1;ratioP1;P2;durP2;ratioP2
50301;SDS011;36550;50.472;19.744;2023-03-01T00:02:33;145.80;;;58.60;;
50301;SDS011;36550;50.472;19.744;2023-03-01T00:05:18;149.50;;;56.80;;
50301;SDS011;36550;50.472;19.744;2023-03-01T00:08:41;216.60;;;87.60;;
50301;SDS011;36550;50.472;19.744;2023-03-01T00:11:27;197.30;;;77.40;;
50301;SDS011;36550;50.472;19.744;2023-03-01T00:14:36;172.60;;;72.80;;
50301;SDS011;36550;50.472;19.744;2023-03-01T00:17:39;176.70;;;70.80;;
50301;SDS011;36550;50.472;19.744;2023-03-01T00:21:04;178.10;;;70.80;;
50301;SDS011;36550;50.472;19.744;2023-03-01T00:24:47;174.10;;;72.20;;
50301;SDS011;36550;50.472;19.744;2023-03-01T00:27:52;187.00;;;76.40;;
50301;SDS011;36550;50.472;19.744;2023-03-01T00:30:54;178.30;;;72.70;;
50301;SDS011;36550;50.472;19.744;2023-03-01T00:33:38;174.60;;;67.00;;
50301;SDS011;36550;50.472;19.744;2023-03-01T00:36:31;170.30;;;67.80;;
50301;SDS011;36550;50.472;19.744;2023-03-01T00:39:36;161.60;;;65.20;;
50301;SDS011;36550;50.472;19.744;2023-03-01T00:42:19;148.90;;;59.20;;
50301;SDS011;36550;50.472;19.744;2023-03-01T00:45:24;118.50;;;50.00;;
50301;SDS011;36550;50.472;19.744;2023-03-01T00:48:10;121.50;;;49.40;;
50301;SDS011;36550;50.472;19.744;2023-03-01T00:51:23;101.00;;;40.90;;
50301;SDS011;36550;50.472;19.744;2023-03-01T00:54:52;95.20;;;40.50;;
50301;SDS011;36550;50.472;19.744;2023-03-01T00:57:48;131.90;;;51.50;;
50301;SDS011;36550;50.472;19.744;2023-03-01T01:00:52;120.80;;;48.70;;
50301;SDS011;36550;50.472;19.744;2023-03-01T01:04:09;114.50;;;47.20;;
50301;SDS011;36550;50.472;19.744;2023-03-01T01:07:17;149.20;;;59.90;;
50301;SDS011;36550;50.472;19.744;2023-03-01T01:10:22;153.20;;;60.90;;
50301;SDS011;36550;50.472;19.744;2023-03-01T01:13:09;201.60;;;76.40;;
50301;SDS011;36550;50.472;19.744;2023-03-01T01:15:53;189.90;;;74.60;;
50301;SDS011;36550;50.472;19.744;2023-03-01T01:18:57;151.20;;;60.70;;
50301;SDS011;36550;50.472;19.744;2023-03-01T01:21:42;212.70;;;81.00;;
50301;SDS011;36550;50.472;19.744;2023-03-01T01:24:27;193.30;;;75.30;;
50301;SDS011;36550;50.472;19.744;2023-03-01T01:27:31;175.00;;;66.20;;
50301;SDS011;36550;50.472;19.744;2023-03-01T01:30:16;165.10;;;62.10;;
50301;SDS011;36550;50.472;19.744;2023-03-01T01:33:00;146.20;;;55.00;;
50301;SDS011;36550;50.472;19.744;2023-03-01T01:36:04;117.90;;;44.90;;
50301;SDS011;36550;50.472;19.744;2023-03-01T01:39:09;120.90;;;49.50;;
50301;SDS011;36550;50.472;19.744;2023-03-01T01:41:57;140.60;;;54.20;;
50301;SDS011;36550;50.472;19.744;2023-03-01T01:45:26;144.20;;;54.40;;
50301;SDS011;36550;50.472;19.744;2023-03-01T01:48:43;128.50;;;53.10;;
50301;SDS011;36550;50.472;19.744;2023-03-01T01:51:44;112.90;;;48.50;;
50301;SDS011;36550;50.472;19.744;2023-03-01T01:58:02;95.80;;;42.40;;
50301;SDS011;36550;50.472;19.744;2023-03-01T02:01:05;108.00;;;45.20;;
50301;SDS011;36550;50.472;19.744;2023-03-01T02:04:07;111.20;;;47.00;;
50301;SDS011;36550;50.472;19.744;2023-03-01T02:06:55;135.50;;;56.00;;
50301;SDS011;36550;50.472;19.744;2023-03-01T02:09:45;127.80;;;54.20;;
50301;SDS011;36550;50.472;19.744;2023-03-01T02:12:36;127.20;;;53.50;;
50301;SDS011;36550;50.472;19.744;2023-03-01T02:15:37;143.10;;;55.90;;
50301;SDS011;36550;50.472;19.744;2023-03-01T02:18:45;133.00;;;54.30;;
50301;SDS011;36550;50.472;19.744;2023-03-01T02:21:49;143.30;;;57.00;;
50301;SDS011;36550;50.472;19.744;2023-03-01T02:28:19;150.20;;;60.30;;
50301;SDS011;36550;50.472;19.744;2023-03-01T02:31:14;133.40;;;55.20;;
50301;SDS011;36550;50.472;19.744;2023-03-01T02:34:29;128.70;;;54.20;;
50301;SDS011;36550;50.472;19.744;2023-03-01T02:37:54;127.30;;;52.40;;
50301;SDS011;36550;50.472;19.744;2023-03-01T02:40:58;113.80;;;47.10;;
50301;SDS011;36550;50.472;19.744;2023-03-01T02:43:52;117.80;;;48.00;;
50301;SDS011;36550;50.472;19.744;2023-03-01T02:47:06;115.00;;;44.90;;
50301;SDS011;36550;50.472;19.744;2023-03-01T02:49:50;102.70;;;44.50;;
50301;SDS011;36550;50.472;19.744;2023-03-01T02:53:10;101.40;;;42.10;;
50301;SDS011;36550;50.472;19.744;2023-03-01T02:56:16;108.40;;;43.40;;
50301;SDS011;36550;50.472;19.744;2023-03-01T02:59:04;88.70;;;37.30;;
50301;SDS011;36550;50.472;19.744;2023-03-01T03:02:29;96.70;;;38.60;;
50301;SDS011;36550;50.472;19.744;2023-03-01T03:05:21;93.80;;;40.20;;
50301;SDS011;36550;50.472;19.744;2023-03-01T03:08:11;89.50;;;39.20;;
50301;SDS011;36550;50.472;19.744;2023-03-01T03:10:55;103.90;;;43.90;;
50301;SDS011;36550;50.472;19.744;2023-03-01T03:13:39;106.40;;;49.00;;
50301;SDS011;36550;50.472;19.744;2023-03-01T03:16:47;119.40;;;53.30;;
50301;SDS011;36550;50.472;19.744;2023-03-01T03:19:53;108.10;;;44.70;;
50301;SDS011;36550;50.472;19.744;2023-03-01T03:22:56;107.20;;;44.20;;
50301;SDS011;36550;50.472;19.744;2023-03-01T03:25:44;86.40;;;37.00;;
50301;SDS011;36550;50.472;19.744;2023-03-01T03:28:31;95.60;;;42.30;;
50301;SDS011;36550;50.472;19.744;2023-03-01T03:31:37;102.80;;;42.20;;
50301;SDS011;36550;50.472;19.744;2023-03-01T03:35:05;116.40;;;47.70;;
50301;SDS011;36550;50.472;19.744;2023-03-01T03:38:28;105.00;;;42.90;;
50301;SDS011;36550;50.472;19.744;2023-03-01T03:41:37;121.80;;;46.70;;
50301;SDS011;36550;50.472;19.744;2023-03-01T03:44:41;97.40;;;42.00;;
50301;SDS011;36550;50.472;19.744;2023-03-01T03:47:40;97.70;;;42.90;;
50301;SDS011;36550;50.472;19.744;2023-03-01T03:51:09;98.60;;;45.90;;
50301;SDS011;36550;50.472;19.744;2023-03-01T03:54:14;101.50;;;43.60;;
50301;SDS011;36550;50.472;19.744;2023-03-01T03:57:20;101.40;;;44.80;;
50301;SDS011;36550;50.472;19.744;2023-03-01T04:00:09;97.40;;;43.30;;
50301;SDS011;36550;50.472;19.744;2023-03-01T04:03:07;80.30;;;35.70;;
50301;SDS011;36550;50.472;19.744;2023-03-01T04:06:21;80.10;;;35.80;;
50301;SDS011;36550;50.472;19.744;2023-03-01T04:09:39;101.10;;;41.10;;
50301;SDS011;36550;50.472;19.744;2023-03-01T04:12:29;91.40;;;37.50;;
50301;SDS011;36550;50.472;19.744;2023-03-01T04:15:21;106.20;;;41.90;;
50301;SDS011;36550;50.472;19.744;2023-03-01T04:18:30;108.40;;;42.80;;
50301;SDS011;36550;50.472;19.744;2023-03-01T04:21:14;103.20;;;41.90;;
50301;SDS011;36550;50.472;19.744;2023-03-01T04:23:59;101.50;;;40.80;;
50301;SDS011;36550;50.472;19.744;2023-03-01T04:27:03;107.50;;;41.70;;
50301;SDS011;36550;50.472;19.744;2023-03-01T04:29:49;106.10;;;42.40;;
50301;SDS011;36550;50.472;19.744;2023-03-01T04:32:41;118.80;;;43.70;;
50301;SDS011;36550;50.472;19.744;2023-03-01T04:35:50;78.50;;;32.70;;
50301;SDS011;36550;50.472;19.744;2023-03-01T04:38:35;63.10;;;27.60;;
50301;SDS011;36550;50.472;19.744;2023-03-01T04:41:40;117.10;;;40.40;;
50301;SDS011;36550;50.472;19.744;2023-03-01T04:44:30;110.10;;;38.10;;
50301;SDS011;36550;50.472;19.744;2023-03-01T04:47:16;85.10;;;33.90;;
50301;SDS011;36550;50.472;19.744;2023-03-01T04:50:21;88.30;;;34.70;;
50301;SDS011;36550;50.472;19.744;2023-03-01T04:53:46;96.00;;;38.70;;
50301;SDS011;36550;50.472;19.744;2023-03-01T04:56:55;114.20;;;43.10;;
50301;SDS011;36550;50.472;19.744;2023-03-01T04:59:40;106.10;;;43.70;;
50301;SDS011;36550;50.472;19.744;2023-03-01T05:02:39;113.90;;;42.20;;
50301;SDS011;36550;50.472;19.744;2023-03-01T05:05:34;109.60;;;40.10;;
50301;SDS011;36550;50.472;19.744;2023-03-01T05:08:38;124.40;;;42.90;;
50301;SDS011;36550;50.472;19.744;2023-03-01T05:11:23;141.30;;;51.30;;
50301;SDS011;36550;50.472;19.744;2023-03-01T05:14:07;187.20;;;62.30;;
50301;SDS011;36550;50.472;19.744;2023-03-01T05:17:12;157.00;;;55.30;;
50301;SDS011;36550;50.472;19.744;2023-03-01T05:20:03;150.60;;;52.80;;
50301;SDS011;36550;50.472;19.744;2023-03-01T05:22:55;132.00;;;47.00;;
50301;SDS011;36550;50.472;19.744;2023-03-01T05:25:59;135.50;;;50.30;;
50301;SDS011;36550;50.472;19.744;2023-03-01T05:28:45;121.20;;;44.00;;
50301;SDS011;36550;50.472;19.744;2023-03-01T05:31:31;137.90;;;47.80;;
50301;SDS011;36550;50.472;19.744;2023-03-01T05:34:16;193.80;;;63.80;;
50301;SDS011;36550;50.472;19.744;2023-03-01T05:37:41;187.30;;;60.90;;
50301;SDS011;36550;50.472;19.744;2023-03-01T05:40:46;244.20;;;72.80;;
50301;SDS011;36550;50.472;19.744;2023-03-01T05:43:32;216.20;;;69.00;;
50301;SDS011;36550;50.472;19.744;2023-03-01T05:46:21;136.70;;;47.90;;
50301;SDS011;36550;50.472;19.744;2023-03-01T05:49:45;119.50;;;43.90;;
50301;SDS011;36550;50.472;19.744;2023-03-01T05:52:30;113.00;;;39.70;;
50301;SDS011;36550;50.472;19.744;2023-03-01T05:55:29;105.20;;;38.50;;
50301;SDS011;36550;50.472;19.744;2023-03-01T05:58:35;118.20;;;42.10;;
50301;SDS011;36550;50.472;19.744;2023-03-01T06:04:26;160.00;;;57.40;;
50301;SDS011;36550;50.472;19.744;2023-03-01T06:07:10;155.90;;;53.50;;
50301;SDS011;36550;50.472;19.744;2023-03-01T06:10:34;129.90;;;49.40;;
50301;SDS011;36550;50.472;19.744;2023-03-01T06:13:38;135.30;;;50.20;;
50301;SDS011;36550;50.472;19.744;2023-03-01T06:16:22;136.50;;;51.60;;
50301;SDS011;36550;50.472;19.744;2023-03-01T06:19:26;139.40;;;53.30;;
50301;SDS011;36550;50.472;19.744;2023-03-01T06:22:31;140.50;;;52.70;;
50301;SDS011;36550;50.472;19.744;2023-03-01T06:25:55;156.40;;;58.50;;
50301;SDS011;36550;50.472;19.744;2023-03-01T06:29:01;144.50;;;54.90;;
50301;SDS011;36550;50.472;19.744;2023-03-01T06:32:06;144.90;;;56.50;;
50301;SDS011;36550;50.472;19.744;2023-03-01T06:35:11;143.60;;;55.80;;
50301;SDS011;36550;50.472;19.744;2023-03-01T06:38:02;144.80;;;56.90;;
50301;SDS011;36550;50.472;19.744;2023-03-01T06:40:52;177.90;;;65.80;;
50301;SDS011;36550;50.472;19.744;2023-03-01T06:44:00;203.30;;;79.20;;
50301;SDS011;36550;50.472;19.744;2023-03-01T06:47:04;211.10;;;78.90;;
50301;SDS011;36550;50.472;19.744;2023-03-01T06:49:48;135.50;;;51.00;;
50301;SDS011;36550;50.472;19.744;2023-03-01T06:52:56;127.30;;;48.70;;
50301;SDS011;36550;50.472;19.744;2023-03-01T06:56:00;179.70;;;64.40;;
50301;SDS011;36550;50.472;19.744;2023-03-01T06:58:44;191.80;;;65.70;;
50301;SDS011;36550;50.472;19.744;2023-03-01T07:01:48;185.10;;;62.90;;
50301;SDS011;36550;50.472;19.744;2023-03-01T07:04:32;168.40;;;59.70;;
50301;SDS011;36550;50.472;19.744;2023-03-01T07:07:20;168.40;;;65.00;;
50301;SDS011;36550;50.472;19.744;2023-03-01T07:10:29;129.10;;;48.90;;
50301;SDS011;36550;50.472;19.744;2023-03-01T07:13:21;115.40;;;45.30;;
50301;SDS011;36550;50.472;19.744;2023-03-01T07:16:08;117.50;;;42.30;;
50301;SDS011;36550;50.472;19.744;2023-03-01T07:19:32;92.20;;;36.10;;
50301;SDS011;36550;50.472;19.744;2023-03-01T07:22:18;104.40;;;38.30;;
50301;SDS011;36550;50.472;19.744;2023-03-01T07:25:02;105.80;;;40.30;;
50301;SDS011;36550;50.472;19.744;2023-03-01T07:27:50;99.90;;;38.90;;
50301;SDS011;36550;50.472;19.744;2023-03-01T07:30:35;90.20;;;37.20;;
50301;SDS011;36550;50.472;19.744;2023-03-01T07:33:19;82.30;;;33.80;;
50301;SDS011;36550;50.472;19.744;2023-03-01T07:36:05;79.50;;;33.10;;
50301;SDS011;36550;50.472;19.744;2023-03-01T07:38:50;74.40;;;33.20;;
50301;SDS011;36550;50.472;19.744;2023-03-01T07:41:34;67.20;;;30.30;;
50301;SDS011;36550;50.472;19.744;2023-03-01T07:44:19;62.90;;;29.30;;
50301;SDS011;36550;50.472;19.744;2023-03-01T07:47:37;63.70;;;28.20;;
50301;SDS011;36550;50.472;19.744;2023-03-01T07:50:22;64.60;;;29.40;;
50301;SDS011;36550;50.472;19.744;2023-03-01T07:53:06;62.70;;;29.50;;
50301;SDS011;36550;50.472;19.744;2023-03-01T07:55:59;76.10;;;32.10;;
50301;SDS011;36550;50.472;19.744;2023-03-01T07:58:50;70.60;;;31.80;;
50301;SDS011;36550;50.472;19.744;2023-03-01T08:01:39;76.90;;;33.90;;
50301;SDS011;36550;50.472;19.744;2023-03-01T08:04:42;79.80;;;34.30;;
50301;SDS011;36550;50.472;19.744;2023-03-01T08:07:34;83.60;;;36.00;;
50301;SDS011;36550;50.472;19.744;2023-03-01T08:10:18;81.10;;;33.70;;
50301;SDS011;36550;50.472;19.744;2023-03-01T08:13:03;77.10;;;33.50;;
50301;SDS011;36550;50.472;19.744;2023-03-01T08:15:51;72.60;;;30.40;;
50301;SDS011;36550;50.472;19.744;2023-03-01T08:18:43;62.20;;;26.90;;
50301;SDS011;36550;50.472;19.744;2023-03-01T08:21:28;56.80;;;25.60;;
50301;SDS011;36550;50.472;19.744;2023-03-01T08:24:12;54.80;;;26.10;;
50301;SDS011;36550;50.472;19.744;2023-03-01T08:27:17;50.00;;;24.40;;
50301;SDS011;36550;50.472;19.744;2023-03-01T08:30:21;51.90;;;23.60;;
50301;SDS011;36550;50.472;19.744;2023-03-01T08:33:20;72.10;;;25.20;;
50301;SDS011;36550;50.472;19.744;2023-03-01T08:36:04;53.40;;;23.90;;
50301;SDS011;36550;50.472;19.744;2023-03-01T08:38:51;56.90;;;23.40;;
50301;SDS011;36550;50.472;19.744;2023-03-01T08:41:55;45.70;;;22.00;;
50301;SDS011;36550;50.472;19.744;2023-03-01T08:44:46;47.30;;;20.80;;
50301;SDS011;36550;50.472;19.744;2023-03-01T08:47:33;47.20;;;21.70;;
50301;SDS011;36550;50.472;19.744;2023-03-01T08:50:19;44.20;;;21.30;;
50301;SDS011;36550;50.472;19.744;2023-03-01T08:53:28;49.80;;;22.30;;
50301;SDS011;36550;50.472;19.744;2023-03-01T08:56:32;51.20;;;23.90;;
50301;SDS011;36550;50.472;19.744;2023-03-01T08:59:17;50.20;;;23.90;;
50301;SDS011;36550;50.472;19.744;2023-03-01T09:02:03;41.20;;;20.20;;
50301;SDS011;36550;50.472;19.744;2023-03-01T09:05:07;36.90;;;17.30;;
50301;SDS011;36550;50.472;19.744;2023-03-01T09:07:52;34.50;;;15.80;;
50301;SDS011;36550;50.472;19.744;2023-03-01T09:10:37;36.40;;;16.50;;
50301;SDS011;36550;50.472;19.744;2023-03-01T09:13:24;40.30;;;17.80;;
50301;SDS011;36550;50.472;19.744;2023-03-01T09:16:10;34.10;;;17.30;;
50301;SDS011;36550;50.472;19.744;2023-03-01T09:21:40;39.40;;;17.20;;
50301;SDS011;36550;50.472;19.744;2023-03-01T09:24:25;36.20;;;16.50;;
50301;SDS011;36550;50.472;19.744;2023-03-01T09:27:52;27.80;;;12.80;;
50301;SDS011;36550;50.472;19.744;2023-03-01T09:30:58;23.40;;;11.70;;
50301;SDS011;36550;50.472;19.744;2023-03-01T09:34:04;28.70;;;14.20;;
50301;SDS011;36550;50.472;19.744;2023-03-01T09:36:57;33.80;;;15.20;;
50301;SDS011;36550;50.472;19.744;2023-03-01T09:39:42;28.40;;;13.90;;
50301;SDS011;36550;50.472;19.744;2023-03-01T09:42:27;26.70;;;13.80;;
50301;SDS011;36550;50.472;19.744;2023-03-01T09:45:21;31.80;;;16.30;;
50301;SDS011;36550;50.472;19.744;2023-03-01T09:48:27;33.20;;;15.90;;
50301;SDS011;36550;50.472;19.744;2023-03-01T09:51:18;32.30;;;15.60;;
50301;SDS011;36550;50.472;19.744;2023-03-01T09:54:09;31.90;;;16.00;;
50301;SDS011;36550;50.472;19.744;2023-03-01T10:00:05;31.90;;;15.90;;
50301;SDS011;36550;50.472;19.744;2023-03-01T10:03:07;37.00;;;18.40;;
50301;SDS011;36550;50.472;19.744;2023-03-01T10:06:23;37.40;;;17.90;;
50301;SDS011;36550;50.472;19.744;2023-03-01T10:09:12;32.50;;;16.10;;
50301;SDS011;36550;50.472;19.744;2023-03-01T10:11:59;36.20;;;18.10;;
50301;SDS011;36550;50.472;19.744;2023-03-01T10:15:01;39.70;;;19.50;;
50301;SDS011;36550;50.472;19.744;2023-03-01T10:18:16;40.90;;;20.30;;
50301;SDS011;36550;50.472;19.744;2023-03-01T10:21:22;39.70;;;20.00;;
50301;SDS011;36550;50.472;19.744;2023-03-01T10:24:11;42.30;;;19.90;;
50301;SDS011;36550;50.472;19.744;2023-03-01T10:26:59;40.30;;;19.10;;
50301;SDS011;36550;50.472;19.744;2023-03-01T10:32:53;37.60;;;18.80;;
50301;SDS011;36550;50.472;19.744;2023-03-01T10:35:38;32.90;;;17.90;;
50301;SDS011;36550;50.472;19.744;2023-03-01T10:38:25;39.30;;;19.00;;
50301;SDS011;36550;50.472;19.744;2023-03-01T10:41:08;38.00;;;18.10;;
50301;SDS011;36550;50.472;19.744;2023-03-01T10:43:56;32.70;;;17.30;;
50301;SDS011;36550;50.472;19.744;2023-03-01T10:46:44;40.30;;;19.30;;
50301;SDS011;36550;50.472;19.744;2023-03-01T10:50:02;34.30;;;17.80;;
50301;SDS011;36550;50.472;19.744;2023-03-01T10:52:59;41.30;;;19.40;;
50301;SDS011;36550;50.472;19.744;2023-03-01T10:55:45;39.10;;;19.70;;
50301;SDS011;36550;50.472;19.744;2023-03-01T10:58:29;36.70;;;19.40;;
50301;SDS011;36550;50.472;19.744;2023-03-01T11:06:57;35.40;;;17.10;;
50301;SDS011;36550;50.472;19.744;2023-03-01T11:09:43;37.10;;;19.50;;
50301;SDS011;36550;50.472;19.744;2023-03-01T11:12:27;44.40;;;21.50;;
50301;SDS011;36550;50.472;19.744;2023-03-01T11:15:25;38.80;;;20.50;;
50301;SDS011;36550;50.472;19.744;2023-03-01T11:18:21;39.20;;;18.40;;
50301;SDS011;36550;50.472;19.744;2023-03-01T11:21:25;36.00;;;18.80;;
50301;SDS011;36550;50.472;19.744;2023-03-01T11:24:14;36.30;;;18.30;;
50301;SDS011;36550;50.472;19.744;2023-03-01T11:27:01;36.80;;;19.60;;
50301;SDS011;36550;50.472;19.744;2023-03-01T11:29:52;28.00;;;14.80;;
50301;SDS011;36550;50.472;19.744;2023-03-01T11:32:56;33.50;;;17.50;;
50301;SDS011;36550;50.472;19.744;2023-03-01T11:36:00;36.30;;;17.50;;
50301;SDS011;36550;50.472;19.744;2023-03-01T11:39:13;39.70;;;18.40;;
50301;SDS011;36550;50.472;19.744;2023-03-01T11:42:19;30.50;;;17.50;;
50301;SDS011;36550;50.472;19.744;2023-03-01T11:45:09;33.20;;;17.40;;
50301;SDS011;36550;50.472;19.744;2023-03-01T11:54:49;31.60;;;15.80;;
50301;SDS011;36550;50.472;19.744;2023-03-01T12:08:01;29.70;;;13.50;;
50301;SDS011;36550;50.472;19.744;2023-03-01T12:14:01;27.50;;;14.10;;
50301;SDS011;36550;50.472;19.744;2023-03-01T12:17:14;26.70;;;14.00;;
50301;SDS011;36550;50.472;19.744;2023-03-01T12:20:20;27.20;;;12.90;;
50301;SDS011;36550;50.472;19.744;2023-03-01T12:29:42;24.30;;;11.40;;
50301;SDS011;36550;50.472;19.744;2023-03-01T12:38:33;21.40;;;11.00;;
50301;SDS011;36550;50.472;19.744;2023-03-01T12:51:07;22.70;;;11.80;;
50301;SDS011;36550;50.472;19.744;2023-03-01T12:53:56;18.30;;;9.60;;
50301;SDS011;36550;50.472;19.744;2023-03-01T12:56:43;21.50;;;9.70;;
50301;SDS011;36550;50.472;19.744;2023-03-01T13:00:21;20.50;;;9.40;;
50301;SDS011;36550;50.472;19.744;2023-03-01T13:02:47;18.20;;;8.90;;
50301;SDS011;36550;50.472;19.744;2023-03-01T13:05:40;17.00;;;7.10;;
50301;SDS011;36550;50.472;19.744;2023-03-01T13:08:51;21.70;;;10.50;;
50301;SDS011;36550;50.472;19.744;2023-03-01T13:11:42;24.60;;;12.40;;
50301;SDS011;36550;50.472;19.744;2023-03-01T13:17:30;26.70;;;13.30;;
50301;SDS011;36550;50.472;19.744;2023-03-01T13:20:17;22.80;;;11.40;;
50301;SDS011;36550;50.472;19.744;2023-03-01T13:35:00;19.20;;;10.00;;
50301;SDS011;36550;50.472;19.744;2023-03-01T13:37:34;21.60;;;10.80;;
50301;SDS011;36550;50.472;19.744;2023-03-01T13:46:22;21.10;;;11.70;;
50301;SDS011;36550;50.472;19.744;2023-03-01T13:49:09;22.00;;;11.00;;
50301;SDS011;36550;50.472;19.744;2023-03-01T13:51:57;20.00;;;10.30;;
50301;SDS011;36550;50.472;19.744;2023-03-01T13:54:42;21.80;;;10.60;;
50301;SDS011;36550;50.472;19.744;2023-03-01T13:57:26;18.10;;;9.10;;
50301;SDS011;36550;50.472;19.744;2023-03-01T14:00:38;21.70;;;10.10;;
50301;SDS011;36550;50.472;19.744;2023-03-01T14:03:24;21.50;;;10.70;;
50301;SDS011;36550;50.472;19.744;2023-03-01T14:06:14;18.80;;;10.50;;
50301;SDS011;36550;50.472;19.744;2023-03-01T14:09:23;20.70;;;10.10;;
50301;SDS011;36550;50.472;19.744;2023-03-01T14:21:01;25.30;;;10.40;;
50301;SDS011;36550;50.472;19.744;2023-03-01T14:23:51;21.90;;;10.60;;
50301;SDS011;36550;50.472;19.744;2023-03-01T14:26:36;22.70;;;11.10;;
50301;SDS011;36550;50.472;19.744;2023-03-01T14:29:27;20.40;;;10.90;;
50301;SDS011;36550;50.472;19.744;2023-03-01T14:32:24;23.10;;;11.70;;
50301;SDS011;36550;50.472;19.744;2023-03-01T14:35:23;23.10;;;11.00;;
50301;SDS011;36550;50.472;19.744;2023-03-01T14:38:20;29.40;;;12.50;;
50301;SDS011;36550;50.472;19.744;2023-03-01T14:41:14;25.00;;;12.30;;
50301;SDS011;36550;50.472;19.744;2023-03-01T14:44:00;25.20;;;11.60;;
50301;SDS011;36550;50.472;19.744;2023-03-01T14:46:51;21.90;;;10.20;;
50301;SDS011;36550;50.472;19.744;2023-03-01T14:49:36;22.60;;;10.00;;
50301;SDS011;36550;50.472;19.744;2023-03-01T14:52:21;19.70;;;10.60;;
50301;SDS011;36550;50.472;19.744;2023-03-01T14:55:16;23.00;;;11.00;;
50301;SDS011;36550;50.472;19.744;2023-03-01T14:58:03;21.80;;;10.80;;
50301;SDS011;36550;50.472;19.744;2023-03-01T15:00:59;20.70;;;10.90;;
50301;SDS011;36550;50.472;19.744;2023-03-01T15:03:49;21.80;;;10.70;;
50301;SDS011;36550;50.472;19.744;2023-03-01T15:06:34;23.00;;;10.50;;
50301;SDS011;36550;50.472;19.744;2023-03-01T15:09:18;21.60;;;10.00;;
50301;SDS011;36550;50.472;19.744;2023-03-01T15:18:30;21.40;;;10.80;;
50301;SDS011;36550;50.472;19.744;2023-03-01T15:21:22;21.80;;;10.50;;
50301;SDS011;36550;50.472;19.744;2023-03-01T15:24:22;21.50;;;11.10;;
50301;SDS011;36550;50.472;19.744;2023-03-01T15:27:18;26.40;;;12.00;;
50301;SDS011;36550;50.472;19.744;2023-03-01T15:30:05;27.90;;;13.00;;
50301;SDS011;36550;50.472;19.744;2023-03-01T15:33:15;30.50;;;12.90;;
50301;SDS011;36550;50.472;19.744;2023-03-01T15:39:32;25.80;;;12.80;;
50301;SDS011;36550;50.472;19.744;2023-03-01T15:48:03;28.80;;;13.50;;
50301;SDS011;36550;50.472;19.744;2023-03-01T15:50:56;29.50;;;12.20;;
50301;SDS011;36550;50.472;19.744;2023-03-01T15:53:49;25.10;;;11.90;;
50301;SDS011;36550;50.472;19.744;2023-03-01T15:56:37;28.40;;;12.80;;
50301;SDS011;36550;50.472;19.744;2023-03-01T15:59:20;24.50;;;12.70;;
50301;SDS011;36550;50.472;19.744;2023-03-01T16:02:09;25.00;;;12.40;;
50301;SDS011;36550;50.472;19.744;2023-03-01T16:04:56;26.00;;;12.50;;
50301;SDS011;36550;50.472;19.744;2023-03-01T16:07:41;25.30;;;11.80;;
50301;SDS011;36550;50.472;19.744;2023-03-01T16:10:26;26.90;;;12.10;;
50301;SDS011;36550;50.472;19.744;2023-03-01T16:15:56;27.30;;;12.60;;
50301;SDS011;36550;50.472;19.744;2023-03-01T16:18:44;35.90;;;16.30;;
50301;SDS011;36550;50.472;19.744;2023-03-01T16:21:32;31.20;;;15.90;;
50301;SDS011;36550;50.472;19.744;2023-03-01T16:24:16;32.60;;;15.10;;
50301;SDS011;36550;50.472;19.744;2023-03-01T16:27:00;38.50;;;15.90;;
50301;SDS011;36550;50.472;19.744;2023-03-01T16:29:45;45.20;;;17.30;;
50301;SDS011;36550;50.472;19.744;2023-03-01T16:32:49;31.90;;;14.20;;
50301;SDS011;36550;50.472;19.744;2023-03-01T16:35:53;39.20;;;15.80;;
50301;SDS011;36550;50.472;19.744;2023-03-01T16:38:37;39.00;;;15.90;;
50301;SDS011;36550;50.472;19.744;2023-03-01T16:41:22;41.00;;;17.20;;
50301;SDS011;36550;50.472;19.744;2023-03-01T16:44:06;45.30;;;17.30;;
50301;SDS011;36550;50.472;19.744;2023-03-01T16:46:50;70.80;;;30.00;;
50301;SDS011;36550;50.472;19.744;2023-03-01T16:49:35;343.40;;;107.00;;
50301;SDS011;36550;50.472;19.744;2023-03-01T16:52:19;255.50;;;80.20;;
50301;SDS011;36550;50.472;19.744;2023-03-01T16:55:04;200.10;;;67.70;;
50301;SDS011;36550;50.472;19.744;2023-03-01T16:57:53;145.40;;;51.10;;
50301;SDS011;36550;50.472;19.744;2023-03-01T17:00:37;102.70;;;40.40;;
50301;SDS011;36550;50.472;19.744;2023-03-01T17:03:21;189.90;;;67.20;;
50301;SDS011;36550;50.472;19.744;2023-03-01T17:06:08;231.40;;;80.50;;
50301;SDS011;36550;50.472;19.744;2023-03-01T17:08:56;240.40;;;88.70;;
50301;SDS011;36550;50.472;19.744;2023-03-01T17:11:40;217.80;;;80.90;;
50301;SDS011;36550;50.472;19.744;2023-03-01T17:14:26;244.10;;;100.10;;
50301;SDS011;36550;50.472;19.744;2023-03-01T17:17:26;245.90;;;100.60;;
50301;SDS011;36550;50.472;19.744;2023-03-01T17:20:11;179.90;;;58.80;;
50301;SDS011;36550;50.472;19.744;2023-03-01T17:22:56;94.70;;;35.70;;
50301;SDS011;36550;50.472;19.744;2023-03-01T17:25:49;136.60;;;50.10;;
50301;SDS011;36550;50.472;19.744;2023-03-01T17:28:34;152.50;;;53.90;;
50301;SDS011;36550;50.472;19.744;2023-03-01T17:31:27;140.40;;;48.00;;
50301;SDS011;36550;50.472;19.744;2023-03-01T17:34:16;138.60;;;47.90;;
50301;SDS011;36550;50.472;19.744;2023-03-01T17:37:05;105.20;;;39.10;;
50301;SDS011;36550;50.472;19.744;2023-03-01T17:39:57;115.10;;;38.90;;
50301;SDS011;36550;50.472;19.744;2023-03-01T17:42:42;128.50;;;44.20;;
50301;SDS011;36550;50.472;19.744;2023-03-01T17:45:26;124.60;;;44.60;;
50301;SDS011;36550;50.472;19.744;2023-03-01T17:48:11;130.00;;;47.20;;
50301;SDS011;36550;50.472;19.744;2023-03-01T17:50:59;174.40;;;62.00;;
50301;SDS011;36550;50.472;19.744;2023-03-01T17:53:43;268.70;;;93.20;;
50301;SDS011;36550;50.472;19.744;2023-03-01T17:56:29;245.50;;;85.20;;
50301;SDS011;36550;50.472;19.744;2023-03-01T17:59:15;237.80;;;83.40;;
50301;SDS011;36550;50.472;19.744;2023-03-01T18:02:00;245.30;;;87.20;;
50301;SDS011;36550;50.472;19.744;2023-03-01T18:04:48;216.00;;;77.70;;
50301;SDS011;36550;50.472;19.744;2023-03-01T18:07:37;234.20;;;78.50;;
50301;SDS011;36550;50.472;19.744;2023-03-01T18:10:22;224.50;;;78.90;;
50301;SDS011;36550;50.472;19.744;2023-03-01T18:13:06;234.40;;;81.40;;
50301;SDS011;36550;50.472;19.744;2023-03-01T18:15:50;221.70;;;74.90;;
50301;SDS011;36550;50.472;19.744;2023-03-01T18:18:36;217.80;;;66.30;;
50301;SDS011;36550;50.472;19.744;2023-03-01T18:21:21;206.40;;;59.60;;
50301;SDS011;36550;50.472;19.744;2023-03-01T18:24:06;170.40;;;51.70;;
50301;SDS011;36550;50.472;19.744;2023-03-01T18:26:50;203.50;;;63.70;;
50301;SDS011;36550;50.472;19.744;2023-03-01T18:29:37;309.20;;;89.80;;
50301;SDS011;36550;50.472;19.744;2023-03-01T18:32:22;313.80;;;92.70;;
50301;SDS011;36550;50.472;19.744;2023-03-01T18:35:13;306.40;;;87.10;;
50301;SDS011;36550;50.472;19.744;2023-03-01T18:37:57;323.60;;;97.40;;